sensor_id;sensor_type;location;lat;lon;timestamp;P1;durP1;ratioP1;P2;durP2;ratioP2
10432;SDS011;5263;48.680;9.004;2024-01-16T00:01:04;4.17;;;2.30;;
10432;SDS011;5263;48.680;9.004;2024-01-16T00:03:31;3.83;;;2.23;;
10432;SDS011;5263;48.680;9.004;2024-01-16T00:05:56;3.70;;;2.47;;
10432;SDS011;5263;48.680;9.004;2024-01-16T00:08:22;4.97;;;2.37;;
10432;SDS011;5263;48.680;9.004;2024-01-16T00:10:48;6.70;;;2.83;;
10432;SDS011;5263;48.680;9.004;2024-01-16T00:13:13;6.03;;;2.30;;
10432;SDS011;5263;48.680;9.004;2024-01-16T00:15:39;3.40;;;2.57;;
10432;SDS011;5263;48.680;9.004;2024-01-16T00:18:06;4.53;;;2.10;;
10432;SDS011;5263;48.680;9.004;2024-01-16T00:20:33;7.53;;;2.57;;
10432;SDS011;5263;48.680;9.004;2024-01-16T00:22:59;3.37;;;2.70;;
10432;SDS011;5263;48.680;9.004;2024-01-16T00:25:25;4.63;;;3.43;;
10432;SDS011;5263;48.680;9.004;2024-01-16T00:27:50;7.70;;;2.83;;
10432;SDS011;5263;48.680;9.004;2024-01-16T00:30:16;4.60;;;2.13;;
10432;SDS011;5263;48.680;9.004;2024-01-16T00:32:42;4.20;;;2.33;;
10432;SDS011;5263;48.680;9.004;2024-01-16T00:35:08;2.97;;;2.10;;
10432;SDS011;5263;48.680;9.004;2024-01-16T00:37:34;3.73;;;2.33;;
10432;SDS011;5263;48.680;9.004;2024-01-16T00:40:01;3.87;;;2.40;;
10432;SDS011;5263;48.680;9.004;2024-01-16T00:42:29;8.60;;;2.90;;
10432;SDS011;5263;48.680;9.004;2024-01-16T00:44:55;4.17;;;1.57;;
10432;SDS011;5263;48.680;9.004;2024-01-16T00:47:21;3.50;;;2.40;;
10432;SDS011;5263;48.680;9.004;2024-01-16T00:49:46;5.77;;;2.13;;
10432;SDS011;5263;48.680;9.004;2024-01-16T00:52:12;3.80;;;2.07;;
10432;SDS011;5263;48.680;9.004;2024-01-16T00:54:38;3.00;;;2.67;;
10432;SDS011;5263;48.680;9.004;2024-01-16T00:57:04;5.20;;;2.73;;
10432;SDS011;5263;48.680;9.004;2024-01-16T00:59:30;2.63;;;1.93;;
10432;SDS011;5263;48.680;9.004;2024-01-16T01:01:56;4.67;;;2.40;;
10432;SDS011;5263;48.680;9.004;2024-01-16T01:04:21;4.30;;;1.97;;
10432;SDS011;5263;48.680;9.004;2024-01-16T01:06:47;3.40;;;2.03;;
10432;SDS011;5263;48.680;9.004;2024-01-16T01:09:13;3.07;;;2.10;;
10432;SDS011;5263;48.680;9.004;2024-01-16T01:11:38;5.33;;;2.17;;
10432;SDS011;5263;48.680;9.004;2024-01-16T01:14:04;3.87;;;2.60;;
10432;SDS011;5263;48.680;9.004;2024-01-16T01:16:30;4.73;;;2.27;;
10432;SDS011;5263;48.680;9.004;2024-01-16T01:18:56;6.30;;;2.13;;
10432;SDS011;5263;48.680;9.004;2024-01-16T01:21:21;5.53;;;2.33;;
10432;SDS011;5263;48.680;9.004;2024-01-16T01:23:47;2.97;;;1.90;;
10432;SDS011;5263;48.680;9.004;2024-01-16T01:26:13;2.67;;;1.83;;
10432;SDS011;5263;48.680;9.004;2024-01-16T01:28:43;3.07;;;1.90;;
10432;SDS011;5263;48.680;9.004;2024-01-16T01:31:12;2.90;;;1.50;;
10432;SDS011;5263;48.680;9.004;2024-01-16T01:33:38;4.77;;;1.93;;
10432;SDS011;5263;48.680;9.004;2024-01-16T01:36:07;4.50;;;2.10;;
10432;SDS011;5263;48.680;9.004;2024-01-16T01:38:32;4.80;;;2.70;;
10432;SDS011;5263;48.680;9.004;2024-01-16T01:40:58;6.83;;;1.93;;
10432;SDS011;5263;48.680;9.004;2024-01-16T01:43:24;3.90;;;2.43;;
10432;SDS011;5263;48.680;9.004;2024-01-16T01:48:40;4.03;;;2.20;;
10432;SDS011;5263;48.680;9.004;2024-01-16T01:51:06;4.33;;;2.30;;
10432;SDS011;5263;48.680;9.004;2024-01-16T01:53:35;4.03;;;1.87;;
10432;SDS011;5263;48.680;9.004;2024-01-16T01:56:02;6.13;;;2.30;;
10432;SDS011;5263;48.680;9.004;2024-01-16T01:58:31;3.10;;;1.40;;
10432;SDS011;5263;48.680;9.004;2024-01-16T02:00:59;3.50;;;1.87;;
10432;SDS011;5263;48.680;9.004;2024-01-16T02:03:28;3.53;;;2.13;;
10432;SDS011;5263;48.680;9.004;2024-01-16T02:05:57;2.97;;;2.23;;
10432;SDS011;5263;48.680;9.004;2024-01-16T02:08:24;4.17;;;2.23;;
10432;SDS011;5263;48.680;9.004;2024-01-16T02:10:50;5.17;;;2.10;;
10432;SDS011;5263;48.680;9.004;2024-01-16T02:13:15;3.03;;;1.93;;
10432;SDS011;5263;48.680;9.004;2024-01-16T02:15:46;5.40;;;2.50;;
10432;SDS011;5263;48.680;9.004;2024-01-16T02:18:11;6.03;;;2.13;;
10432;SDS011;5263;48.680;9.004;2024-01-16T02:20:37;3.07;;;1.93;;
10432;SDS011;5263;48.680;9.004;2024-01-16T02:23:03;6.27;;;2.37;;
10432;SDS011;5263;48.680;9.004;2024-01-16T02:25:31;4.03;;;2.20;;
10432;SDS011;5263;48.680;9.004;2024-01-16T02:27:56;4.00;;;2.13;;
10432;SDS011;5263;48.680;9.004;2024-01-16T02:30:22;7.00;;;1.97;;
10432;SDS011;5263;48.680;9.004;2024-01-16T02:32:48;3.77;;;2.10;;
10432;SDS011;5263;48.680;9.004;2024-01-16T02:35:13;2.80;;;1.60;;
10432;SDS011;5263;48.680;9.004;2024-01-16T02:37:40;5.97;;;2.23;;
10432;SDS011;5263;48.680;9.004;2024-01-16T02:40:06;4.97;;;2.00;;
10432;SDS011;5263;48.680;9.004;2024-01-16T02:42:32;4.20;;;2.00;;
10432;SDS011;5263;48.680;9.004;2024-01-16T02:44:58;3.03;;;1.50;;
10432;SDS011;5263;48.680;9.004;2024-01-16T02:47:23;6.47;;;2.20;;
10432;SDS011;5263;48.680;9.004;2024-01-16T02:49:49;4.47;;;2.00;;
10432;SDS011;5263;48.680;9.004;2024-01-16T02:52:15;3.17;;;1.87;;
10432;SDS011;5263;48.680;9.004;2024-01-16T02:54:41;4.93;;;1.97;;
10432;SDS011;5263;48.680;9.004;2024-01-16T02:57:06;5.87;;;1.97;;
10432;SDS011;5263;48.680;9.004;2024-01-16T02:59:32;4.83;;;2.50;;
10432;SDS011;5263;48.680;9.004;2024-01-16T03:01:57;6.17;;;2.30;;
10432;SDS011;5263;48.680;9.004;2024-01-16T03:04:23;5.10;;;1.70;;
10432;SDS011;5263;48.680;9.004;2024-01-16T03:06:49;3.47;;;1.90;;
10432;SDS011;5263;48.680;9.004;2024-01-16T03:09:14;4.07;;;2.30;;
10432;SDS011;5263;48.680;9.004;2024-01-16T03:11:40;4.93;;;2.60;;
10432;SDS011;5263;48.680;9.004;2024-01-16T03:14:05;3.83;;;2.03;;
10432;SDS011;5263;48.680;9.004;2024-01-16T03:16:31;4.33;;;1.83;;
10432;SDS011;5263;48.680;9.004;2024-01-16T03:18:57;3.90;;;1.73;;
10432;SDS011;5263;48.680;9.004;2024-01-16T03:21:22;3.50;;;1.87;;
10432;SDS011;5263;48.680;9.004;2024-01-16T03:23:48;5.63;;;1.93;;
10432;SDS011;5263;48.680;9.004;2024-01-16T03:26:14;3.90;;;1.63;;
10432;SDS011;5263;48.680;9.004;2024-01-16T03:28:40;7.00;;;2.40;;
10432;SDS011;5263;48.680;9.004;2024-01-16T03:31:06;3.00;;;2.07;;
10432;SDS011;5263;48.680;9.004;2024-01-16T03:33:32;3.87;;;1.40;;
10432;SDS011;5263;48.680;9.004;2024-01-16T03:35:59;6.93;;;1.87;;
10432;SDS011;5263;48.680;9.004;2024-01-16T03:38:25;4.17;;;1.97;;
10432;SDS011;5263;48.680;9.004;2024-01-16T03:40:51;2.50;;;1.80;;
10432;SDS011;5263;48.680;9.004;2024-01-16T03:43:17;2.13;;;1.50;;
10432;SDS011;5263;48.680;9.004;2024-01-16T03:45:42;1.97;;;1.70;;
10432;SDS011;5263;48.680;9.004;2024-01-16T03:48:08;7.50;;;2.00;;
10432;SDS011;5263;48.680;9.004;2024-01-16T03:50:34;4.33;;;1.80;;
10432;SDS011;5263;48.680;9.004;2024-01-16T03:53:01;2.50;;;1.93;;
10432;SDS011;5263;48.680;9.004;2024-01-16T03:55:28;3.00;;;2.03;;
10432;SDS011;5263;48.680;9.004;2024-01-16T03:57:55;3.90;;;1.80;;
10432;SDS011;5263;48.680;9.004;2024-01-16T04:00:20;2.73;;;1.67;;
10432;SDS011;5263;48.680;9.004;2024-01-16T04:02:46;3.47;;;1.87;;
10432;SDS011;5263;48.680;9.004;2024-01-16T04:05:12;2.37;;;1.60;;
10432;SDS011;5263;48.680;9.004;2024-01-16T04:07:38;7.67;;;1.60;;
10432;SDS011;5263;48.680;9.004;2024-01-16T04:10:03;4.23;;;1.70;;
10432;SDS011;5263;48.680;9.004;2024-01-16T04:12:31;2.03;;;1.33;;
10432;SDS011;5263;48.680;9.004;2024-01-16T04:14:56;5.20;;;1.70;;
10432;SDS011;5263;48.680;9.004;2024-01-16T04:17:22;5.13;;;1.70;;
10432;SDS011;5263;48.680;9.004;2024-01-16T04:19:47;3.57;;;1.73;;
10432;SDS011;5263;48.680;9.004;2024-01-16T04:22:13;6.33;;;2.30;;
10432;SDS011;5263;48.680;9.004;2024-01-16T04:24:39;4.10;;;2.03;;
10432;SDS011;5263;48.680;9.004;2024-01-16T04:27:04;3.80;;;1.50;;
10432;SDS011;5263;48.680;9.004;2024-01-16T04:29:30;7.60;;;1.97;;
10432;SDS011;5263;48.680;9.004;2024-01-16T04:31:56;3.30;;;1.53;;
10432;SDS011;5263;48.680;9.004;2024-01-16T04:34:22;4.13;;;2.00;;
10432;SDS011;5263;48.680;9.004;2024-01-16T04:36:48;2.63;;;1.70;;
10432;SDS011;5263;48.680;9.004;2024-01-16T04:39:13;1.93;;;1.30;;
10432;SDS011;5263;48.680;9.004;2024-01-16T04:41:39;4.97;;;1.97;;
10432;SDS011;5263;48.680;9.004;2024-01-16T04:44:04;2.60;;;1.87;;
10432;SDS011;5263;48.680;9.004;2024-01-16T04:46:30;5.33;;;1.70;;
10432;SDS011;5263;48.680;9.004;2024-01-16T04:48:56;2.43;;;1.53;;
10432;SDS011;5263;48.680;9.004;2024-01-16T04:51:21;3.67;;;1.57;;
10432;SDS011;5263;48.680;9.004;2024-01-16T04:53:47;3.20;;;1.80;;
10432;SDS011;5263;48.680;9.004;2024-01-16T04:56:12;4.60;;;1.30;;
10432;SDS011;5263;48.680;9.004;2024-01-16T04:58:38;2.33;;;1.37;;
10432;SDS011;5263;48.680;9.004;2024-01-16T05:01:04;2.40;;;1.87;;
10432;SDS011;5263;48.680;9.004;2024-01-16T05:03:29;2.10;;;1.60;;
10432;SDS011;5263;48.680;9.004;2024-01-16T05:05:55;4.53;;;1.57;;
10432;SDS011;5263;48.680;9.004;2024-01-16T05:08:21;3.73;;;1.50;;
10432;SDS011;5263;48.680;9.004;2024-01-16T05:10:47;3.87;;;1.93;;
10432;SDS011;5263;48.680;9.004;2024-01-16T05:13:13;4.30;;;1.57;;
10432;SDS011;5263;48.680;9.004;2024-01-16T05:15:39;5.80;;;1.80;;
10432;SDS011;5263;48.680;9.004;2024-01-16T05:18:07;3.53;;;1.67;;
10432;SDS011;5263;48.680;9.004;2024-01-16T05:20:32;2.70;;;1.43;;
10432;SDS011;5263;48.680;9.004;2024-01-16T05:22:58;2.03;;;1.20;;
10432;SDS011;5263;48.680;9.004;2024-01-16T05:25:23;2.30;;;1.60;;
10432;SDS011;5263;48.680;9.004;2024-01-16T05:27:49;3.77;;;1.53;;
10432;SDS011;5263;48.680;9.004;2024-01-16T05:30:15;2.30;;;1.60;;
10432;SDS011;5263;48.680;9.004;2024-01-16T05:32:41;2.87;;;1.30;;
10432;SDS011;5263;48.680;9.004;2024-01-16T05:35:06;4.40;;;1.43;;
10432;SDS011;5263;48.680;9.004;2024-01-16T05:37:32;3.37;;;1.33;;
10432;SDS011;5263;48.680;9.004;2024-01-16T05:39:58;1.97;;;1.10;;
10432;SDS011;5263;48.680;9.004;2024-01-16T05:42:24;2.27;;;1.17;;
10432;SDS011;5263;48.680;9.004;2024-01-16T05:44:49;3.30;;;1.67;;
10432;SDS011;5263;48.680;9.004;2024-01-16T05:47:15;3.03;;;1.60;;
10432;SDS011;5263;48.680;9.004;2024-01-16T05:49:40;1.70;;;1.30;;
10432;SDS011;5263;48.680;9.004;2024-01-16T05:52:07;4.40;;;1.77;;
10432;SDS011;5263;48.680;9.004;2024-01-16T05:54:33;2.83;;;1.77;;
10432;SDS011;5263;48.680;9.004;2024-01-16T05:56:59;5.00;;;1.73;;
10432;SDS011;5263;48.680;9.004;2024-01-16T05:59:24;2.67;;;1.90;;
10432;SDS011;5263;48.680;9.004;2024-01-16T06:01:50;5.13;;;1.70;;
10432;SDS011;5263;48.680;9.004;2024-01-16T06:04:16;6.33;;;1.50;;
10432;SDS011;5263;48.680;9.004;2024-01-16T06:06:41;3.50;;;1.63;;
10432;SDS011;5263;48.680;9.004;2024-01-16T06:09:11;3.87;;;1.30;;
10432;SDS011;5263;48.680;9.004;2024-01-16T06:11:39;2.50;;;1.53;;
10432;SDS011;5263;48.680;9.004;2024-01-16T06:14:06;3.57;;;1.20;;
10432;SDS011;5263;48.680;9.004;2024-01-16T06:16:32;4.87;;;1.37;;
10432;SDS011;5263;48.680;9.004;2024-01-16T06:18:58;3.50;;;1.57;;
10432;SDS011;5263;48.680;9.004;2024-01-16T06:21:23;5.70;;;1.73;;
10432;SDS011;5263;48.680;9.004;2024-01-16T06:23:49;4.20;;;1.40;;
10432;SDS011;5263;48.680;9.004;2024-01-16T06:26:14;2.47;;;1.30;;
10432;SDS011;5263;48.680;9.004;2024-01-16T06:28:40;4.87;;;1.63;;
10432;SDS011;5263;48.680;9.004;2024-01-16T06:31:07;6.53;;;1.27;;
10432;SDS011;5263;48.680;9.004;2024-01-16T06:33:36;1.90;;;1.30;;
10432;SDS011;5263;48.680;9.004;2024-01-16T06:36:03;2.00;;;1.53;;
10432;SDS011;5263;48.680;9.004;2024-01-16T06:38:31;1.67;;;1.37;;
10432;SDS011;5263;48.680;9.004;2024-01-16T06:40:57;3.40;;;1.57;;
10432;SDS011;5263;48.680;9.004;2024-01-16T06:43:23;2.97;;;1.30;;
10432;SDS011;5263;48.680;9.004;2024-01-16T06:45:49;4.57;;;1.47;;
10432;SDS011;5263;48.680;9.004;2024-01-16T06:48:14;4.67;;;1.70;;
10432;SDS011;5263;48.680;9.004;2024-01-16T06:50:40;4.00;;;1.80;;
10432;SDS011;5263;48.680;9.004;2024-01-16T06:53:06;3.13;;;1.73;;
10432;SDS011;5263;48.680;9.004;2024-01-16T06:55:32;4.17;;;1.57;;
10432;SDS011;5263;48.680;9.004;2024-01-16T06:57:58;3.97;;;2.23;;
10432;SDS011;5263;48.680;9.004;2024-01-16T07:00:23;4.10;;;1.10;;
10432;SDS011;5263;48.680;9.004;2024-01-16T07:02:51;2.30;;;1.20;;
10432;SDS011;5263;48.680;9.004;2024-01-16T07:05:17;6.40;;;1.57;;
10432;SDS011;5263;48.680;9.004;2024-01-16T07:07:43;2.83;;;1.60;;
10432;SDS011;5263;48.680;9.004;2024-01-16T07:10:09;2.27;;;1.20;;
10432;SDS011;5263;48.680;9.004;2024-01-16T07:12:42;3.73;;;1.93;;
10432;SDS011;5263;48.680;9.004;2024-01-16T07:15:12;2.33;;;1.33;;
10432;SDS011;5263;48.680;9.004;2024-01-16T07:17:38;4.07;;;1.57;;
10432;SDS011;5263;48.680;9.004;2024-01-16T07:20:04;4.37;;;1.70;;
10432;SDS011;5263;48.680;9.004;2024-01-16T07:22:30;3.07;;;1.30;;
10432;SDS011;5263;48.680;9.004;2024-01-16T07:24:56;3.20;;;1.53;;
10432;SDS011;5263;48.680;9.004;2024-01-16T07:27:21;2.33;;;1.50;;
10432;SDS011;5263;48.680;9.004;2024-01-16T07:29:47;7.10;;;2.07;;
10432;SDS011;5263;48.680;9.004;2024-01-16T07:32:12;3.03;;;1.70;;
10432;SDS011;5263;48.680;9.004;2024-01-16T07:34:38;3.20;;;1.63;;
10432;SDS011;5263;48.680;9.004;2024-01-16T07:37:03;3.50;;;1.33;;
10432;SDS011;5263;48.680;9.004;2024-01-16T07:39:29;5.90;;;1.77;;
10432;SDS011;5263;48.680;9.004;2024-01-16T07:41:54;2.90;;;1.67;;
10432;SDS011;5263;48.680;9.004;2024-01-16T07:44:20;2.17;;;1.43;;
10432;SDS011;5263;48.680;9.004;2024-01-16T07:46:46;2.93;;;1.23;;
10432;SDS011;5263;48.680;9.004;2024-01-16T07:49:11;2.27;;;1.43;;
10432;SDS011;5263;48.680;9.004;2024-01-16T07:51:37;1.97;;;1.43;;
10432;SDS011;5263;48.680;9.004;2024-01-16T07:54:06;3.17;;;1.10;;
10432;SDS011;5263;48.680;9.004;2024-01-16T07:56:33;5.57;;;2.20;;
10432;SDS011;5263;48.680;9.004;2024-01-16T07:58:59;3.40;;;1.63;;
10432;SDS011;5263;48.680;9.004;2024-01-16T08:01:26;1.47;;;1.13;;
10432;SDS011;5263;48.680;9.004;2024-01-16T08:03:51;2.67;;;1.40;;
10432;SDS011;5263;48.680;9.004;2024-01-16T08:06:17;1.70;;;1.43;;
10432;SDS011;5263;48.680;9.004;2024-01-16T08:08:43;3.07;;;1.20;;
10432;SDS011;5263;48.680;9.004;2024-01-16T08:11:08;3.43;;;1.10;;
10432;SDS011;5263;48.680;9.004;2024-01-16T08:13:34;2.50;;;1.30;;
10432;SDS011;5263;48.680;9.004;2024-01-16T08:15:59;3.23;;;1.30;;
10432;SDS011;5263;48.680;9.004;2024-01-16T08:18:25;1.47;;;1.20;;
10432;SDS011;5263;48.680;9.004;2024-01-16T08:20:51;2.60;;;1.37;;
10432;SDS011;5263;48.680;9.004;2024-01-16T08:23:17;3.67;;;1.60;;
10432;SDS011;5263;48.680;9.004;2024-01-16T08:25:42;2.67;;;1.77;;
10432;SDS011;5263;48.680;9.004;2024-01-16T08:28:08;3.87;;;1.40;;
10432;SDS011;5263;48.680;9.004;2024-01-16T08:30:34;2.50;;;1.50;;
10432;SDS011;5263;48.680;9.004;2024-01-16T08:33:00;2.20;;;1.43;;
10432;SDS011;5263;48.680;9.004;2024-01-16T08:35:25;6.90;;;1.77;;
10432;SDS011;5263;48.680;9.004;2024-01-16T08:37:51;2.90;;;1.07;;
10432;SDS011;5263;48.680;9.004;2024-01-16T08:40:16;1.70;;;1.40;;
10432;SDS011;5263;48.680;9.004;2024-01-16T08:42:42;4.10;;;1.53;;
10432;SDS011;5263;48.680;9.004;2024-01-16T08:45:08;2.93;;;1.13;;
10432;SDS011;5263;48.680;9.004;2024-01-16T08:47:34;3.47;;;1.27;;
10432;SDS011;5263;48.680;9.004;2024-01-16T08:49:59;3.37;;;1.43;;
10432;SDS011;5263;48.680;9.004;2024-01-16T08:52:25;7.50;;;1.50;;
10432;SDS011;5263;48.680;9.004;2024-01-16T08:54:50;2.07;;;1.20;;
10432;SDS011;5263;48.680;9.004;2024-01-16T08:57:16;1.73;;;1.30;;
10432;SDS011;5263;48.680;9.004;2024-01-16T08:59:41;1.63;;;1.17;;
10432;SDS011;5263;48.680;9.004;2024-01-16T09:02:07;4.90;;;1.27;;
10432;SDS011;5263;48.680;9.004;2024-01-16T09:04:33;3.03;;;1.13;;
10432;SDS011;5263;48.680;9.004;2024-01-16T09:06:59;1.57;;;1.27;;
10432;SDS011;5263;48.680;9.004;2024-01-16T09:09:25;3.73;;;1.10;;
10432;SDS011;5263;48.680;9.004;2024-01-16T09:11:51;4.20;;;0.90;;
10432;SDS011;5263;48.680;9.004;2024-01-16T09:14:16;2.43;;;1.27;;
10432;SDS011;5263;48.680;9.004;2024-01-16T09:16:42;1.77;;;1.40;;
10432;SDS011;5263;48.680;9.004;2024-01-16T09:19:08;2.50;;;1.43;;
10432;SDS011;5263;48.680;9.004;2024-01-16T09:21:34;2.50;;;1.67;;
10432;SDS011;5263;48.680;9.004;2024-01-16T09:24:00;8.70;;;1.30;;
10432;SDS011;5263;48.680;9.004;2024-01-16T09:26:25;6.93;;;2.93;;
10432;SDS011;5263;48.680;9.004;2024-01-16T09:28:51;2.17;;;1.57;;
10432;SDS011;5263;48.680;9.004;2024-01-16T09:31:17;2.77;;;1.67;;
10432;SDS011;5263;48.680;9.004;2024-01-16T09:33:42;4.03;;;1.60;;
10432;SDS011;5263;48.680;9.004;2024-01-16T09:36:08;3.20;;;1.50;;
10432;SDS011;5263;48.680;9.004;2024-01-16T09:38:34;1.53;;;1.10;;
10432;SDS011;5263;48.680;9.004;2024-01-16T09:40:59;3.27;;;1.30;;
10432;SDS011;5263;48.680;9.004;2024-01-16T09:43:28;3.20;;;0.90;;
10432;SDS011;5263;48.680;9.004;2024-01-16T09:45:55;2.90;;;1.17;;
10432;SDS011;5263;48.680;9.004;2024-01-16T09:48:21;1.37;;;0.83;;
10432;SDS011;5263;48.680;9.004;2024-01-16T09:50:47;2.50;;;0.90;;
10432;SDS011;5263;48.680;9.004;2024-01-16T09:53:13;2.57;;;1.20;;
10432;SDS011;5263;48.680;9.004;2024-01-16T09:55:38;4.43;;;1.47;;
10432;SDS011;5263;48.680;9.004;2024-01-16T09:58:04;1.40;;;1.00;;
10432;SDS011;5263;48.680;9.004;2024-01-16T10:00:33;6.83;;;1.57;;
10432;SDS011;5263;48.680;9.004;2024-01-16T10:02:59;2.47;;;1.47;;
10432;SDS011;5263;48.680;9.004;2024-01-16T10:05:26;2.87;;;1.80;;
10432;SDS011;5263;48.680;9.004;2024-01-16T10:07:52;4.77;;;1.77;;
10432;SDS011;5263;48.680;9.004;2024-01-16T10:10:18;6.43;;;2.80;;
10432;SDS011;5263;48.680;9.004;2024-01-16T10:12:45;5.47;;;2.20;;
10432;SDS011;5263;48.680;9.004;2024-01-16T10:15:12;9.13;;;2.27;;
10432;SDS011;5263;48.680;9.004;2024-01-16T10:17:41;4.33;;;1.57;;
10432;SDS011;5263;48.680;9.004;2024-01-16T10:20:07;6.50;;;1.37;;
10432;SDS011;5263;48.680;9.004;2024-01-16T10:22:38;3.47;;;1.67;;
10432;SDS011;5263;48.680;9.004;2024-01-16T10:27:31;6.67;;;1.93;;
10432;SDS011;5263;48.680;9.004;2024-01-16T10:29:57;3.23;;;1.60;;
10432;SDS011;5263;48.680;9.004;2024-01-16T10:35:05;3.17;;;1.87;;
10432;SDS011;5263;48.680;9.004;2024-01-16T10:37:42;7.40;;;1.47;;
10432;SDS011;5263;48.680;9.004;2024-01-16T10:40:09;5.80;;;1.63;;
10432;SDS011;5263;48.680;9.004;2024-01-16T10:42:39;3.43;;;1.00;;
10432;SDS011;5263;48.680;9.004;2024-01-16T10:45:05;1.40;;;1.30;;
10432;SDS011;5263;48.680;9.004;2024-01-16T10:47:31;1.70;;;1.13;;
10432;SDS011;5263;48.680;9.004;2024-01-16T10:50:02;6.80;;;1.93;;
10432;SDS011;5263;48.680;9.004;2024-01-16T10:52:28;1.87;;;1.43;;
10432;SDS011;5263;48.680;9.004;2024-01-16T10:54:58;4.20;;;1.93;;
10432;SDS011;5263;48.680;9.004;2024-01-16T10:57:29;4.03;;;1.40;;
10432;SDS011;5263;48.680;9.004;2024-01-16T11:02:31;3.97;;;1.07;;
10432;SDS011;5263;48.680;9.004;2024-01-16T11:05:10;3.90;;;1.27;;
10432;SDS011;5263;48.680;9.004;2024-01-16T11:07:37;4.20;;;1.83;;
10432;SDS011;5263;48.680;9.004;2024-01-16T11:10:04;4.63;;;1.20;;
10432;SDS011;5263;48.680;9.004;2024-01-16T11:12:31;2.17;;;1.43;;
10432;SDS011;5263;48.680;9.004;2024-01-16T11:14:59;2.50;;;1.23;;
10432;SDS011;5263;48.680;9.004;2024-01-16T11:17:26;1.27;;;1.10;;
10432;SDS011;5263;48.680;9.004;2024-01-16T11:19:54;4.43;;;1.23;;
10432;SDS011;5263;48.680;9.004;2024-01-16T11:22:21;2.20;;;1.30;;
10432;SDS011;5263;48.680;9.004;2024-01-16T11:25:06;5.03;;;1.53;;
10432;SDS011;5263;48.680;9.004;2024-01-16T11:27:43;2.47;;;1.40;;
10432;SDS011;5263;48.680;9.004;2024-01-16T11:30:28;2.17;;;1.17;;
10432;SDS011;5263;48.680;9.004;2024-01-16T11:32:55;2.30;;;1.00;;
10432;SDS011;5263;48.680;9.004;2024-01-16T11:35:31;2.47;;;1.50;;
10432;SDS011;5263;48.680;9.004;2024-01-16T11:38:14;1.50;;;1.00;;
10432;SDS011;5263;48.680;9.004;2024-01-16T11:40:41;4.93;;;1.50;;
10432;SDS011;5263;48.680;9.004;2024-01-16T11:45:59;0.90;;;0.80;;
10432;SDS011;5263;48.680;9.004;2024-01-16T11:48:35;2.97;;;0.97;;
10432;SDS011;5263;48.680;9.004;2024-01-16T11:51:22;3.83;;;1.00;;
10432;SDS011;5263;48.680;9.004;2024-01-16T11:53:49;3.20;;;1.23;;
10432;SDS011;5263;48.680;9.004;2024-01-16T12:01:50;3.43;;;0.80;;
10432;SDS011;5263;48.680;9.004;2024-01-16T12:04:18;4.90;;;0.77;;
10432;SDS011;5263;48.680;9.004;2024-01-16T12:06:46;3.23;;;0.70;;
10432;SDS011;5263;48.680;9.004;2024-01-16T12:09:26;1.67;;;1.33;;
10432;SDS011;5263;48.680;9.004;2024-01-16T12:12:01;0.93;;;0.60;;
10432;SDS011;5263;48.680;9.004;2024-01-16T12:14:28;3.83;;;1.00;;
10432;SDS011;5263;48.680;9.004;2024-01-16T12:17:15;0.90;;;0.50;;
10432;SDS011;5263;48.680;9.004;2024-01-16T12:19:43;1.53;;;0.60;;
10432;SDS011;5263;48.680;9.004;2024-01-16T12:22:09;1.10;;;0.40;;
10432;SDS011;5263;48.680;9.004;2024-01-16T12:24:38;1.00;;;0.50;;
10432;SDS011;5263;48.680;9.004;2024-01-16T12:27:04;1.40;;;0.60;;
10432;SDS011;5263;48.680;9.004;2024-01-16T12:29:30;1.33;;;0.40;;
10432;SDS011;5263;48.680;9.004;2024-01-16T12:32:06;2.40;;;0.50;;
10432;SDS011;5263;48.680;9.004;2024-01-16T12:34:32;3.47;;;0.73;;
10432;SDS011;5263;48.680;9.004;2024-01-16T12:37:05;1.23;;;0.50;;
10432;SDS011;5263;48.680;9.004;2024-01-16T12:39:32;1.23;;;0.60;;
10432;SDS011;5263;48.680;9.004;2024-01-16T12:42:00;1.90;;;0.50;;
10432;SDS011;5263;48.680;9.004;2024-01-16T12:44:27;2.73;;;0.60;;
10432;SDS011;5263;48.680;9.004;2024-01-16T12:46:56;1.73;;;0.50;;
10432;SDS011;5263;48.680;9.004;2024-01-16T12:49:23;1.33;;;0.80;;
10432;SDS011;5263;48.680;9.004;2024-01-16T12:51:49;1.17;;;0.70;;
10432;SDS011;5263;48.680;9.004;2024-01-16T12:54:16;1.50;;;0.87;;
10432;SDS011;5263;48.680;9.004;2024-01-16T12:56:43;3.63;;;0.60;;
10432;SDS011;5263;48.680;9.004;2024-01-16T12:59:10;0.93;;;0.53;;
10432;SDS011;5263;48.680;9.004;2024-01-16T13:01:42;0.97;;;0.60;;
10432;SDS011;5263;48.680;9.004;2024-01-16T13:04:09;1.70;;;0.50;;
10432;SDS011;5263;48.680;9.004;2024-01-16T13:06:35;1.97;;;0.60;;
10432;SDS011;5263;48.680;9.004;2024-01-16T13:09:04;0.80;;;0.50;;
10432;SDS011;5263;48.680;9.004;2024-01-16T13:11:51;2.10;;;0.60;;
10432;SDS011;5263;48.680;9.004;2024-01-16T13:14:20;2.27;;;0.63;;
10432;SDS011;5263;48.680;9.004;2024-01-16T13:16:46;2.00;;;0.50;;
10432;SDS011;5263;48.680;9.004;2024-01-16T13:19:15;0.57;;;0.47;;
10432;SDS011;5263;48.680;9.004;2024-01-16T13:21:44;0.50;;;0.50;;
10432;SDS011;5263;48.680;9.004;2024-01-16T13:24:10;3.70;;;0.50;;
10432;SDS011;5263;48.680;9.004;2024-01-16T13:26:35;2.20;;;0.37;;
10432;SDS011;5263;48.680;9.004;2024-01-16T13:29:02;1.30;;;0.40;;
10432;SDS011;5263;48.680;9.004;2024-01-16T13:31:28;0.60;;;0.43;;
10432;SDS011;5263;48.680;9.004;2024-01-16T13:33:54;2.83;;;0.70;;
10432;SDS011;5263;48.680;9.004;2024-01-16T13:36:21;0.60;;;0.60;;
10432;SDS011;5263;48.680;9.004;2024-01-16T13:38:47;1.30;;;0.70;;
10432;SDS011;5263;48.680;9.004;2024-01-16T13:41:14;0.60;;;0.50;;
10432;SDS011;5263;48.680;9.004;2024-01-16T13:43:39;1.70;;;0.77;;
10432;SDS011;5263;48.680;9.004;2024-01-16T13:46:05;1.03;;;0.73;;
10432;SDS011;5263;48.680;9.004;2024-01-16T13:48:33;2.07;;;0.80;;
10432;SDS011;5263;48.680;9.004;2024-01-16T13:50:59;1.00;;;0.70;;
10432;SDS011;5263;48.680;9.004;2024-01-16T13:53:24;2.70;;;0.83;;
10432;SDS011;5263;48.680;9.004;2024-01-16T13:55:50;1.77;;;0.67;;
10432;SDS011;5263;48.680;9.004;2024-01-16T13:58:16;2.33;;;0.80;;
10432;SDS011;5263;48.680;9.004;2024-01-16T14:00:41;7.53;;;1.00;;
10432;SDS011;5263;48.680;9.004;2024-01-16T14:03:07;1.80;;;1.03;;
10432;SDS011;5263;48.680;9.004;2024-01-16T14:05:32;3.33;;;0.87;;
10432;SDS011;5263;48.680;9.004;2024-01-16T14:07:58;5.33;;;0.80;;
10432;SDS011;5263;48.680;9.004;2024-01-16T14:10:24;0.60;;;0.60;;
10432;SDS011;5263;48.680;9.004;2024-01-16T14:12:52;0.70;;;0.70;;
10432;SDS011;5263;48.680;9.004;2024-01-16T14:15:19;1.37;;;1.00;;
10432;SDS011;5263;48.680;9.004;2024-01-16T14:17:50;2.10;;;0.97;;
10432;SDS011;5263;48.680;9.004;2024-01-16T14:20:18;3.03;;;1.10;;
10432;SDS011;5263;48.680;9.004;2024-01-16T14:22:58;0.77;;;0.77;;
10432;SDS011;5263;48.680;9.004;2024-01-16T14:25:24;3.70;;;1.20;;
10432;SDS011;5263;48.680;9.004;2024-01-16T14:28:00;0.97;;;0.87;;
10432;SDS011;5263;48.680;9.004;2024-01-16T14:30:31;1.77;;;1.03;;
10432;SDS011;5263;48.680;9.004;2024-01-16T14:32:57;1.97;;;0.90;;
10432;SDS011;5263;48.680;9.004;2024-01-16T14:35:23;1.77;;;1.10;;
10432;SDS011;5263;48.680;9.004;2024-01-16T14:37:52;1.90;;;1.10;;
10432;SDS011;5263;48.680;9.004;2024-01-16T14:40:18;3.57;;;0.93;;
10432;SDS011;5263;48.680;9.004;2024-01-16T14:42:50;0.90;;;0.80;;
10432;SDS011;5263;48.680;9.004;2024-01-16T14:45:19;3.37;;;0.90;;
10432;SDS011;5263;48.680;9.004;2024-01-16T14:47:46;2.43;;;1.20;;
10432;SDS011;5263;48.680;9.004;2024-01-16T14:50:12;2.70;;;1.13;;
10432;SDS011;5263;48.680;9.004;2024-01-16T14:52:39;3.17;;;1.67;;
10432;SDS011;5263;48.680;9.004;2024-01-16T14:55:05;1.97;;;1.20;;
10432;SDS011;5263;48.680;9.004;2024-01-16T14:57:34;3.40;;;1.60;;
10432;SDS011;5263;48.680;9.004;2024-01-16T15:00:07;3.27;;;2.10;;
10432;SDS011;5263;48.680;9.004;2024-01-16T15:02:48;5.17;;;2.00;;
10432;SDS011;5263;48.680;9.004;2024-01-16T15:05:15;4.17;;;2.33;;
10432;SDS011;5263;48.680;9.004;2024-01-16T15:07:41;7.47;;;3.57;;
10432;SDS011;5263;48.680;9.004;2024-01-16T15:10:08;5.43;;;2.30;;
10432;SDS011;5263;48.680;9.004;2024-01-16T15:12:36;6.30;;;2.00;;
10432;SDS011;5263;48.680;9.004;2024-01-16T15:15:05;4.03;;;2.17;;
10432;SDS011;5263;48.680;9.004;2024-01-16T15:17:36;3.90;;;1.70;;